HUEN Airport Information

Runway Information
Runway 12 Length 7900 ft width 150 ft
Elevation 3778 ft Threshold 0 ft Heading 121
Runway 30 Length 7900 ft Width 150 ft
Elevation 3752 ft Threshold 0 ft Heading 301
Runway 17 Length 12000 ft width 150 ft
Elevation 3780 ft Threshold 0 ft Heading 171
Runway 35 Length 12000 ft Width 150 ft
Elevation 3745 ft Threshold 0 ft Heading 351
Airport Frequencies
Type APP Name ENTEBBE RA Frequency 126.6 MHZ
Type EBB Name EBB AREA C Frequency 128.5 MHZ
Type TWR Name TWR Frequency 118.1 MHZ
Airport Navaids
Type NDB Name Entebbe Frequency 355 KHZ
Type VOR-DME Name Entebbe Frequency 117500 KHZ
Type NDB Name Port Bell Frequency 270 KHZ
Airport Weather Information & NOTAM
ADDS - METARS form results

(2331 UTC 28 September 2021)
Data provider http://aviationweather.gov/metar/data/
 
Forecast for: HUEN (ENTEBBE INTL ARP, UG)
Text: TAF HUEN 281656Z 2818/2924 VRB10KT 9999 FEW022 FEW024CB
Forecast period: 1800 UTC 28 September 2021 to 0000 UTC 30 September 2021
Forecast type: FROM: standard forecast or significant change
Winds: variable direction winds at 12 MPH (10 knots; 5.1 m/s)
Visibility: 6 or more miles (10+ km)
Ceiling: at least 12,000 feet AGL
Clouds: few clouds at 2200 feet AGL
few clouds at 2400 feet AGL
Weather: no significant weather forecast for this period